createdAt,value
2019-03-21T00:02:12.703Z,97140.86
2019-03-21T00:05:02.305Z,97144.65
2019-03-21T00:07:51.327Z,97146.84
2019-03-21T00:11:35.868Z,97140.03
2019-03-21T00:15:09.472Z,97135.19
2019-03-21T00:18:04.626Z,97133.28
2019-03-21T00:20:54.324Z,97131.89
2019-03-21T00:23:43.441Z,97124.99
2019-03-21T00:26:32.802Z,97130.92
2019-03-21T00:29:21.675Z,97123.52
2019-03-21T00:32:11.079Z,97128.88
2019-03-21T00:35:00.585Z,97126.82
2019-03-21T00:37:50.414Z,97127.91
2019-03-21T00:40:43.874Z,97127.30
2019-03-21T00:43:32.591Z,97125.46
2019-03-21T00:46:22.137Z,97119.23
2019-03-21T00:49:11.437Z,97117.92
2019-03-21T00:52:00.096Z,97124.94
2019-03-21T00:54:49.331Z,97121.39
2019-03-21T00:57:38.716Z,97118.44
2019-03-21T01:00:34.068Z,97115.09
2019-03-21T01:03:22.807Z,97113.74
2019-03-21T01:06:12.095Z,97119.78
2019-03-21T01:09:01.442Z,97113.34
2019-03-21T01:11:50.888Z,97119.27
2019-03-21T01:14:39.585Z,97114.78
2019-03-21T01:17:29.049Z,97105.97
2019-03-21T01:20:18.128Z,97108.05
2019-03-21T01:23:07.679Z,97105.31
2019-03-21T01:25:57.853Z,97097.61
2019-03-21T01:28:47.195Z,97103.22
2019-03-21T01:31:36.691Z,97092.09
2019-03-21T01:34:25.556Z,97088.60
2019-03-21T01:37:15.195Z,97084.25
2019-03-21T01:40:04.345Z,97084.11
2019-03-21T01:42:53.519Z,97080.68
2019-03-21T01:45:42.347Z,97073.13
2019-03-21T01:48:31.237Z,97072.95
2019-03-21T01:51:20.640Z,97069.75
2019-03-21T01:54:10.845Z,97073.25
2019-03-21T01:57:00.327Z,97073.73
2019-03-21T01:59:50.621Z,97066.09
2019-03-21T02:02:39.922Z,97069.41
2019-03-21T02:05:28.565Z,97072.09
2019-03-21T02:08:17.316Z,97068.23
2019-03-21T02:11:06.716Z,97067.59
2019-03-21T02:13:55.587Z,97065.39
2019-03-21T02:16:44.425Z,97066.90
2019-03-21T02:19:33.387Z,97075.51
2019-03-21T02:22:23.016Z,97075.63
2019-03-21T02:25:18.163Z,97075.23
2019-03-21T02:28:06.883Z,97077.89
2019-03-21T02:30:56.053Z,97075.02
2019-03-21T02:33:44.884Z,97078.62
2019-03-21T02:36:33.955Z,97083.25
2019-03-21T02:39:22.732Z,97087.58
2019-03-21T02:42:11.985Z,97087.17
2019-03-21T02:45:08.459Z,97081.20
2019-03-21T02:47:51.655Z,97075.17
2019-03-21T02:50:40.574Z,97073.02
2019-03-21T02:53:30.336Z,97077.10
2019-03-21T02:56:20.056Z,97074.50
2019-03-21T02:59:09.274Z,97079.13
2019-03-21T03:01:58.916Z,97077.75
2019-03-21T03:04:47.977Z,97079.13
2019-03-21T03:07:37.540Z,97079.83
2019-03-21T03:10:39.072Z,97080.23
2019-03-21T03:13:28.693Z,97080.66
2019-03-21T03:16:17.546Z,97085.80
2019-03-21T03:19:07.068Z,97078.91
2019-03-21T03:21:56.124Z,97078.18
2019-03-21T03:24:44.976Z,97080.66
2019-03-21T03:27:34.206Z,97078.39
2019-03-21T03:30:24.349Z,97078.45
2019-03-21T03:33:13.392Z,97081.48
2019-03-21T03:36:02.445Z,97083.80
2019-03-21T03:38:51.554Z,97089.74
2019-03-21T03:41:40.869Z,97082.03
2019-03-21T03:44:29.466Z,97082.57
2019-03-21T03:47:18.856Z,97081.11
2019-03-21T03:50:08.738Z,97083.44
2019-03-21T03:52:57.317Z,97083.87
2019-03-21T03:55:47.003Z,97082.25
2019-03-21T03:58:36.801Z,97083.17
2019-03-21T04:01:25.821Z,97080.01
2019-03-21T04:04:15.751Z,97085.33
2019-03-21T04:07:05.094Z,97082.67
2019-03-21T04:09:54.545Z,97083.59
2019-03-21T04:12:43.993Z,97081.13
2019-03-21T04:15:33.134Z,97075.59
2019-03-21T04:18:22.487Z,97073.75
2019-03-21T04:21:11.696Z,97077.73
2019-03-21T04:24:00.898Z,97075.62
2019-03-21T04:26:49.885Z,97077.45
2019-03-21T04:29:38.579Z,97075.41
2019-03-21T04:32:28.390Z,97072.66
2019-03-21T04:35:18.045Z,97068.80
2019-03-21T04:38:07.409Z,97061.27
2019-03-21T04:40:56.703Z,97065.16
2019-03-21T04:43:46.216Z,97060.17
2019-03-21T04:46:34.859Z,97056.31
2019-03-21T04:49:24.758Z,97049.43
2019-03-21T04:52:14.428Z,97047.78
2019-03-21T04:55:02.974Z,97046.52
2019-03-21T04:57:51.589Z,97035.41
2019-03-21T05:00:40.861Z,97033.64
2019-03-21T05:03:30.316Z,97034.92
2019-03-21T05:06:19.333Z,97028.34
2019-03-21T05:09:11.749Z,97029.63
2019-03-21T05:12:01.442Z,97029.23
2019-03-21T05:14:50.693Z,97023.27
2019-03-21T05:17:39.321Z,97025.83
2019-03-21T05:20:29.275Z,97018.13
2019-03-21T05:23:18.671Z,97017.88
2019-03-21T05:26:18.392Z,97014.20
2019-03-21T05:29:07.412Z,97014.17
2019-03-21T05:31:56.154Z,97011.97
2019-03-21T05:34:45.057Z,97008.57
2019-03-21T05:37:34.179Z,97009.95
2019-03-21T05:40:22.811Z,97004.63
2019-03-21T05:43:18.212Z,97001.95
2019-03-21T05:46:07.561Z,97004.44
2019-03-21T05:48:57.131Z,97006.81
2019-03-21T05:51:46.560Z,97015.38
2019-03-21T05:54:35.227Z,97021.05
2019-03-21T05:57:23.873Z,97023.07
2019-03-21T06:00:19.377Z,97022.53
2019-03-21T06:03:16.106Z,97032.53
2019-03-21T06:06:12.572Z,97027.52
2019-03-21T06:09:02.346Z,97027.03
2019-03-21T06:11:55.577Z,97029.14
2019-03-21T06:14:49.118Z,97032.72
2019-03-21T06:17:37.908Z,97037.16
2019-03-21T06:20:41.593Z,97037.70
2019-03-21T06:24:15.094Z,97039.17
2019-03-21T06:27:14.881Z,97041.98
2019-03-21T06:30:04.611Z,97044.00
2019-03-21T06:32:53.880Z,97047.06
2019-03-21T06:35:43.018Z,97049.98
2019-03-21T06:38:32.318Z,97047.70
2019-03-21T06:41:21.492Z,97046.45
2019-03-21T06:44:10.579Z,97042.02
2019-03-21T06:46:59.645Z,97044.27
2019-03-21T06:49:48.528Z,97047.72
2019-03-21T06:52:37.313Z,97051.85
2019-03-21T06:55:26.732Z,97055.11
2019-03-21T06:58:16.291Z,97054.22
2019-03-21T07:01:05.267Z,97057.41
2019-03-21T07:03:54.590Z,97057.41
2019-03-21T07:06:43.355Z,97066.89
2019-03-21T07:09:32.649Z,97065.44
2019-03-21T07:12:21.834Z,97072.33
2019-03-21T07:15:11.977Z,97072.18
2019-03-21T07:18:00.805Z,97066.72
2019-03-21T07:20:49.889Z,97072.63
2019-03-21T07:23:39.096Z,97065.50
2019-03-21T07:26:28.448Z,97067.84
2019-03-21T07:29:18.191Z,97069.27
2019-03-21T07:32:07.108Z,97063.92
2019-03-21T07:34:56.296Z,97071.09
2019-03-21T07:37:45.885Z,97065.75
2019-03-21T07:40:34.852Z,97073.42
2019-03-21T07:43:23.809Z,97074.47
2019-03-21T07:46:13.256Z,97072.96
2019-03-21T07:49:02.639Z,97080.84
2019-03-21T07:51:51.334Z,97070.36
2019-03-21T07:54:40.281Z,97072.33
2019-03-21T07:57:29.681Z,97064.35
2019-03-21T08:00:19.892Z,97065.37
2019-03-21T08:03:08.987Z,97066.83
2019-03-21T08:05:58.211Z,97067.45
2019-03-21T08:08:47.817Z,97062.44
2019-03-21T08:11:37.501Z,97062.59
2019-03-21T08:14:26.622Z,97067.21
2019-03-21T08:17:16.730Z,97064.27
2019-03-21T08:20:07.976Z,97056.30
2019-03-21T08:22:56.824Z,97065.54
2019-03-21T08:25:45.774Z,97059.66
2019-03-21T08:28:34.781Z,97062.06
2019-03-21T08:31:24.279Z,97057.05
2019-03-21T08:34:13.553Z,97055.92
2019-03-21T08:37:02.122Z,97056.09
2019-03-21T08:39:51.176Z,97060.09
2019-03-21T08:42:40.412Z,97061.05
2019-03-21T08:45:31.000Z,97062.38
2019-03-21T08:48:20.231Z,97054.86
2019-03-21T08:51:09.591Z,97054.96
2019-03-21T08:53:58.353Z,97062.39
2019-03-21T08:56:48.034Z,97068.56
2019-03-21T08:59:37.222Z,97062.67
2019-03-21T09:02:25.814Z,97056.31
2019-03-21T09:05:15.277Z,97061.11
2019-03-21T09:08:04.329Z,97054.66
2019-03-21T09:10:53.808Z,97054.34
2019-03-21T09:13:43.029Z,97053.97
2019-03-21T09:16:32.099Z,97053.63
2019-03-21T09:19:20.756Z,97051.14
2019-03-21T09:22:10.114Z,97056.41
2019-03-21T09:24:59.691Z,97056.85
2019-03-21T09:27:48.616Z,97047.91
2019-03-21T09:30:37.845Z,97044.54
2019-03-21T09:33:27.143Z,97034.24
2019-03-21T09:36:16.470Z,97034.73
2019-03-21T09:39:07.469Z,97032.61
2019-03-21T09:41:56.585Z,97029.19
2019-03-21T09:44:45.468Z,97026.63
2019-03-21T09:47:34.381Z,97025.78
2019-03-21T09:50:28.435Z,97028.83
2019-03-21T09:53:17.298Z,97024.50
2019-03-21T09:56:06.322Z,97016.72
2019-03-21T09:58:55.872Z,97022.34
2019-03-21T10:01:45.484Z,97026.72
2019-03-21T10:04:34.508Z,97022.81
2019-03-21T10:07:24.074Z,97018.91
2019-03-21T10:10:16.248Z,97010.67
2019-03-21T10:13:06.096Z,97013.70
2019-03-21T10:15:55.643Z,97012.81
2019-03-21T10:18:45.187Z,97012.34
2019-03-21T10:21:42.759Z,97005.39
2019-03-21T10:24:24.650Z,97003.61
2019-03-21T10:27:14.193Z,97004.86
2019-03-21T10:30:03.451Z,96999.18
2019-03-21T10:32:53.899Z,97004.81
2019-03-21T10:35:43.719Z,97002.14
2019-03-21T10:38:32.825Z,97003.01
2019-03-21T10:41:22.076Z,97007.30
2019-03-21T10:44:11.288Z,97005.51
2019-03-21T10:47:00.669Z,97006.81
2019-03-21T10:49:50.185Z,97001.95
2019-03-21T10:52:40.000Z,97001.41
2019-03-21T10:55:29.153Z,96995.71
2019-03-21T10:58:18.334Z,96996.55
2019-03-21T11:01:07.153Z,96991.66
2019-03-21T11:03:55.992Z,96987.19
2019-03-21T11:06:45.450Z,96987.61
2019-03-21T11:09:34.695Z,96979.31
2019-03-21T11:12:23.945Z,96979.23
2019-03-21T11:15:13.182Z,96975.98
2019-03-21T11:18:02.761Z,96979.59
2019-03-21T11:20:53.223Z,96973.40
2019-03-21T11:23:42.073Z,96973.70
2019-03-21T11:26:31.447Z,96973.63
2019-03-21T11:29:21.072Z,96968.63
2019-03-21T11:32:10.816Z,96968.48
2019-03-21T11:35:00.478Z,96965.86
2019-03-21T11:37:49.287Z,96962.59
2019-03-21T11:40:38.655Z,96952.03
2019-03-21T11:43:27.537Z,96959.55
2019-03-21T11:46:17.168Z,96940.21
2019-03-21T11:49:06.598Z,96946.33
2019-03-21T11:51:55.474Z,96941.26
2019-03-21T11:54:44.161Z,96936.32
2019-03-21T11:57:33.015Z,96927.88
2019-03-21T12:00:21.740Z,96929.52
2019-03-21T12:03:10.881Z,96919.80
2019-03-21T12:06:00.096Z,96919.93
2019-03-21T12:08:49.474Z,96915.45
2019-03-21T12:11:39.004Z,96910.48
2019-03-21T12:14:27.988Z,96909.68
2019-03-21T12:17:17.038Z,96907.70
2019-03-21T12:20:07.109Z,96900.98
2019-03-21T12:22:56.186Z,96897.31
2019-03-21T12:25:45.482Z,96901.66
2019-03-21T12:28:34.408Z,96893.55
2019-03-21T12:31:23.413Z,96892.72
2019-03-21T12:34:13.236Z,96891.59
2019-03-21T12:37:02.171Z,96880.31
2019-03-21T12:39:51.496Z,96883.16
2019-03-21T12:42:40.895Z,96875.68
2019-03-21T12:45:29.955Z,96868.44
2019-03-21T12:48:19.300Z,96863.34
2019-03-21T12:51:08.814Z,96865.58
2019-03-21T12:53:58.331Z,96857.33
2019-03-21T12:56:47.068Z,96853.52
2019-03-21T12:59:35.851Z,96848.89
2019-03-21T13:02:32.241Z,96848.59
2019-03-21T13:05:19.052Z,96843.24
2019-03-21T13:08:08.333Z,96833.52
2019-03-21T13:10:57.520Z,96843.69
2019-03-21T13:13:46.885Z,96840.02
2019-03-21T13:16:36.275Z,96831.52
2019-03-21T13:19:25.742Z,96838.20
2019-03-21T13:22:15.651Z,96834.77
2019-03-21T13:25:05.800Z,96834.77
2019-03-21T13:27:55.132Z,96835.00
2019-03-21T13:30:44.674Z,96828.77
2019-03-21T13:33:33.990Z,96830.64
2019-03-21T13:36:23.198Z,96822.00
2019-03-21T13:39:12.473Z,96829.17
2019-03-21T13:42:01.837Z,96819.47
2019-03-21T13:44:50.956Z,96822.77
2019-03-21T13:47:40.409Z,96822.77
2019-03-21T13:50:30.326Z,96818.03
2019-03-21T13:53:19.378Z,96818.03
2019-03-21T13:56:08.617Z,96807.89
2019-03-21T13:58:57.907Z,96807.89
2019-03-21T14:01:47.515Z,96803.08
2019-03-21T14:04:36.927Z,96804.69
2019-03-21T14:07:26.524Z,96796.63
2019-03-21T14:10:15.456Z,96793.54
2019-03-21T14:13:05.011Z,96791.67
2019-03-21T14:15:54.392Z,96787.59
2019-03-21T14:18:43.308Z,96782.92
2019-03-21T14:21:32.041Z,96781.27
2019-03-21T14:24:21.400Z,96789.42
2019-03-21T14:27:10.387Z,96785.58
2019-03-21T14:30:01.834Z,96772.59
2019-03-21T14:32:49.477Z,96783.70
2019-03-21T14:35:38.755Z,96781.91
2019-03-21T14:38:27.492Z,96783.23
2019-03-21T14:41:17.048Z,96781.34
2019-03-21T14:44:07.206Z,96778.55
2019-03-21T14:46:56.375Z,96779.70
2019-03-21T14:49:45.915Z,96777.48
2019-03-21T14:52:36.484Z,96778.52
2019-03-21T14:55:25.949Z,96777.14
2019-03-21T14:58:15.669Z,96773.98
2019-03-21T15:01:05.058Z,96770.37
2019-03-21T15:03:54.618Z,96776.55
2019-03-21T15:06:43.552Z,96775.27
2019-03-21T15:09:32.801Z,96774.81
2019-03-21T15:12:22.204Z,96778.72
2019-03-21T15:15:12.433Z,96775.08
2019-03-21T15:18:01.406Z,96777.74
2019-03-21T15:20:50.815Z,96773.20
2019-03-21T15:23:41.161Z,96766.48
2019-03-21T15:26:30.347Z,96777.80
2019-03-21T15:29:19.067Z,96768.87
2019-03-21T15:32:08.018Z,96770.42
2019-03-21T15:34:57.383Z,96767.45
2019-03-21T15:37:46.347Z,96772.78
2019-03-21T15:40:35.313Z,96776.63
2019-03-21T15:43:24.454Z,96777.59
2019-03-21T15:46:13.698Z,96773.09
2019-03-21T15:49:03.157Z,96777.39
2019-03-21T15:51:52.286Z,96777.70
2019-03-21T15:54:41.759Z,96773.97
2019-03-21T15:57:31.974Z,96774.48
2019-03-21T16:00:29.688Z,96775.98
2019-03-21T16:03:18.578Z,96767.48
2019-03-21T16:06:08.065Z,96766.03
2019-03-21T16:08:57.489Z,96765.05
2019-03-21T16:11:46.893Z,96768.48
2019-03-21T16:14:35.916Z,96760.23
2019-03-21T16:17:25.671Z,96764.66
2019-03-21T16:20:14.587Z,96765.98
2019-03-21T16:23:03.228Z,96769.66
2019-03-21T16:25:53.045Z,96776.20
2019-03-21T16:28:41.604Z,96778.41
2019-03-21T16:31:30.684Z,96787.45
2019-03-21T16:34:20.453Z,96785.98
2019-03-21T16:37:12.034Z,96785.97
2019-03-21T16:40:00.645Z,96786.16
2019-03-21T16:42:50.263Z,96787.27
2019-03-21T16:45:39.759Z,96776.78
2019-03-21T16:48:28.895Z,96786.84
2019-03-21T16:51:18.316Z,96786.84
2019-03-21T16:54:16.497Z,96784.84
2019-03-21T16:56:58.006Z,96788.83
2019-03-21T16:59:47.360Z,96791.47
2019-03-21T17:02:39.420Z,96795.41
2019-03-21T17:05:29.112Z,96794.99
2019-03-21T17:08:18.137Z,96800.35
2019-03-21T17:11:07.445Z,96795.85
2019-03-21T17:13:56.256Z,96800.14
2019-03-21T17:16:45.697Z,96806.00
2019-03-21T17:19:35.376Z,96802.72
2019-03-21T17:22:24.523Z,96806.47
2019-03-21T17:25:14.389Z,96805.01
2019-03-21T17:28:03.598Z,96809.05
2019-03-21T17:30:53.157Z,96805.39
2019-03-21T17:33:42.525Z,96811.20
2019-03-21T17:36:32.408Z,96814.91
2019-03-21T17:39:20.938Z,96817.20
2019-03-21T17:42:09.724Z,96818.73
2019-03-21T17:44:58.937Z,96820.19
2019-03-21T17:47:48.603Z,96822.89
2019-03-21T17:50:38.762Z,96831.88
2019-03-21T17:53:27.702Z,96826.34
2019-03-21T17:56:16.891Z,96826.93
2019-03-21T17:59:06.156Z,96833.12
2019-03-21T18:01:55.269Z,96830.22
2019-03-21T18:04:44.965Z,96834.64
2019-03-21T18:07:34.220Z,96833.44
2019-03-21T18:10:33.884Z,96836.18
2019-03-21T18:13:23.139Z,96835.85
2019-03-21T18:16:12.394Z,96828.55
2019-03-21T18:19:02.170Z,96835.63
2019-03-21T18:21:51.894Z,96842.67
2019-03-21T18:24:52.991Z,96841.44
2019-03-21T18:27:32.806Z,96841.51
2019-03-21T18:30:21.561Z,96844.64
2019-03-21T18:33:11.050Z,96859.06
2019-03-21T18:36:00.714Z,96852.98
2019-03-21T18:38:58.809Z,96860.89
2019-03-21T18:41:40.952Z,96858.77
2019-03-21T18:44:30.867Z,96863.61
2019-03-21T18:47:20.944Z,96863.65
2019-03-21T18:50:10.878Z,96866.72
2019-03-21T18:52:59.836Z,96878.94
2019-03-21T18:55:49.325Z,96879.42
2019-03-21T18:58:38.340Z,96878.14
2019-03-21T19:01:27.836Z,96872.95
2019-03-21T19:04:18.190Z,96872.98
2019-03-21T19:07:07.543Z,96876.91
2019-03-21T19:09:57.478Z,96870.42
2019-03-21T19:12:47.141Z,96873.46
2019-03-21T19:15:37.027Z,96876.07
2019-03-21T19:18:26.053Z,96872.15
2019-03-21T19:21:17.989Z,96880.39
2019-03-21T19:24:11.516Z,96874.76
2019-03-21T19:27:00.480Z,96869.13
2019-03-21T19:29:50.415Z,96863.94
2019-03-21T19:32:40.511Z,96866.98
2019-03-21T19:35:29.663Z,96858.78
2019-03-21T19:38:19.667Z,96860.51
2019-03-21T19:41:09.013Z,96857.02
2019-03-21T19:43:58.516Z,96861.37
2019-03-21T19:46:48.143Z,96863.55
2019-03-21T19:49:37.610Z,96861.35
2019-03-21T19:52:27.387Z,96866.56
2019-03-21T19:55:25.879Z,96867.42
2019-03-21T19:58:08.879Z,96866.47
2019-03-21T20:00:58.148Z,96867.29
2019-03-21T20:03:47.944Z,96869.91
2019-03-21T20:06:36.844Z,96870.80
2019-03-21T20:09:25.699Z,96872.12
2019-03-21T20:12:15.330Z,96867.34
2019-03-21T20:15:05.927Z,96864.73
2019-03-21T20:17:54.897Z,96863.77
2019-03-21T20:20:43.991Z,96872.28
2019-03-21T20:23:33.449Z,96876.55
2019-03-21T20:26:22.947Z,96876.08
2019-03-21T20:29:12.468Z,96877.83
2019-03-21T20:32:02.658Z,96880.39
2019-03-21T20:34:52.181Z,96879.52
2019-03-21T20:37:41.596Z,96873.44
2019-03-21T20:40:31.075Z,96866.49
2019-03-21T20:43:20.953Z,96870.33
2019-03-21T20:46:10.497Z,96872.88
2019-03-21T20:48:57.833Z,96868.52
2019-03-21T20:51:47.206Z,96871.10
2019-03-21T20:54:36.704Z,96863.71
2019-03-21T20:57:25.914Z,96863.26
2019-03-21T21:00:17.882Z,96867.08
2019-03-21T21:03:06.839Z,96869.17
2019-03-21T21:05:55.989Z,96876.02
2019-03-21T21:08:45.557Z,96864.66
2019-03-21T21:11:35.212Z,96865.08
2019-03-21T21:14:24.232Z,96864.99
2019-03-21T21:17:13.280Z,96867.59
2019-03-21T21:20:02.408Z,96861.98
2019-03-21T21:22:51.899Z,96862.91
2019-03-21T21:25:41.548Z,96865.52
2019-03-21T21:28:31.066Z,96861.66
2019-03-21T21:31:20.339Z,96858.59
2019-03-21T21:34:09.841Z,96856.37
2019-03-21T21:36:59.314Z,96855.81
2019-03-21T21:39:48.260Z,96866.94
2019-03-21T21:42:37.809Z,96869.53
2019-03-21T21:45:26.849Z,96869.47
2019-03-21T21:48:16.239Z,96863.73
2019-03-21T21:51:05.671Z,96865.05
2019-03-21T21:53:54.904Z,96860.76
2019-03-21T21:56:44.427Z,96859.94
2019-03-21T21:59:33.446Z,96856.84
2019-03-21T22:02:22.586Z,96858.80
2019-03-21T22:05:11.334Z,96857.77
2019-03-21T22:08:02.014Z,96851.67
2019-03-21T22:10:51.075Z,96855.48
2019-03-21T22:13:40.017Z,96853.30
2019-03-21T22:16:29.247Z,96853.16
2019-03-21T22:19:18.619Z,96860.88
2019-03-21T22:22:08.155Z,96856.15
2019-03-21T22:24:57.840Z,96861.77
2019-03-21T22:27:47.354Z,96860.63
2019-03-21T22:30:37.073Z,96855.48
2019-03-21T22:33:26.744Z,96850.82
2019-03-21T22:36:16.597Z,96846.39
2019-03-21T22:39:07.959Z,96843.55
2019-03-21T22:41:57.409Z,96845.72
2019-03-21T22:44:46.540Z,96847.34
2019-03-21T22:47:35.938Z,96852.84
2019-03-21T22:50:25.373Z,96850.02
2019-03-21T22:53:14.840Z,96848.20
2019-03-21T22:56:03.958Z,96836.52
2019-03-21T22:58:53.728Z,96841.69
2019-03-21T23:01:42.566Z,96840.76
2019-03-21T23:04:31.972Z,96835.94
2019-03-21T23:07:22.112Z,96828.55
2019-03-21T23:10:12.417Z,96825.02
2019-03-21T23:13:01.528Z,96819.73
2019-03-21T23:15:51.118Z,96819.33
2019-03-21T23:18:40.750Z,96822.40
2019-03-21T23:21:29.754Z,96821.46
2019-03-21T23:24:18.911Z,96824.31
2019-03-21T23:27:07.983Z,96822.13
2019-03-21T23:29:57.052Z,96824.22
2019-03-21T23:32:46.700Z,96822.08
2019-03-21T23:35:35.798Z,96819.59
2019-03-21T23:38:24.542Z,96820.48
2019-03-21T23:41:14.052Z,96822.08
2019-03-21T23:44:03.667Z,96815.93
2019-03-21T23:46:54.389Z,96822.30
2019-03-21T23:49:44.125Z,96818.83
2019-03-21T23:52:33.819Z,96820.91
2019-03-21T23:55:23.518Z,96814.45
2019-03-21T23:58:12.651Z,96809.73
